Progress Software ROA 2010-2024 | PRGS

Current and historical return on assets (ROA) values for Progress Software (PRGS) over the last 10 years. Return on assets can be defined as an indicator of how profitable a company is relative to its total assets. Calculated by dividing a company's operating earnings by its total assets.
Progress Software ROA - Return on Assets Historical Data
Date TTM Net Income Total Assets Return on Assets
2024-02-29 $0.07B $1.55B 4.35%
2023-11-30 $0.07B $1.60B 4.34%
2023-08-31 $0.08B $1.60B 5.05%
2023-05-31 $0.08B $1.60B 5.46%
2023-02-28 $0.10B $1.64B 6.88%
2022-11-30 $0.10B $1.41B 6.95%
2022-08-31 $0.09B $1.35B 6.35%
2022-05-31 $0.10B $1.36B 7.11%
2022-02-28 $0.08B $1.35B 6.12%
2021-11-30 $0.08B $1.36B 6.44%
2021-08-31 $0.08B $1.28B 7.16%
2021-05-31 $0.08B $1.24B 7.10%
2021-02-28 $0.08B $1.03B 8.03%
2020-11-30 $0.08B $1.04B 8.54%
2020-08-31 $0.06B $0.92B 6.36%
2020-05-31 $0.05B $0.90B 5.33%
2020-02-29 $0.04B $0.89B 4.39%
2019-11-30 $0.03B $0.88B 3.26%
2019-08-31 $0.04B $0.86B 5.42%
2019-05-31 $0.04B $0.83B 5.89%
2019-02-28 $0.05B $0.62B 7.14%
2018-11-30 $0.05B $0.64B 7.72%
2018-08-31 $0.05B $0.63B 7.36%
2018-05-31 $0.05B $0.64B 6.65%
2018-02-28 $0.04B $0.68B 6.00%
2017-11-30 $0.03B $0.72B 3.83%
2017-08-31 $-0.05B $0.73B -7.30%
2017-05-31 $-0.06B $0.74B -7.44%
2017-02-28 $-0.06B $0.74B -7.59%
2016-11-30 $-0.06B $0.76B -6.79%
2016-08-31 $0.01B $0.83B 1.05%
2016-05-31 $-0.00B $0.83B -0.35%
2016-02-29 $-0.00B $0.88B -0.45%
2015-11-30 $-0.01B $0.88B -0.91%
2015-08-31 $0.02B $0.89B 1.79%
2015-05-31 $0.03B $0.88B 3.81%
2015-02-28 $0.04B $0.89B 5.03%
2014-11-30 $0.05B $0.70B 7.15%
2014-08-31 $0.05B $0.68B 7.35%
2014-05-31 $0.06B $0.67B 9.37%
2014-02-28 $0.06B $0.69B 7.94%
2013-11-30 $0.08B $0.68B 10.49%
2013-08-31 $0.10B $0.69B 12.54%
2013-05-31 $0.08B $0.71B 9.38%
2013-02-28 $0.07B $0.78B 8.18%
2012-11-30 $0.05B $0.89B 5.22%
2012-08-31 $0.02B $0.91B 2.57%
2012-05-31 $0.03B $0.90B 2.90%
2012-02-29 $0.05B $0.91B 5.05%
2011-11-30 $0.06B $0.86B 6.48%
2011-08-31 $0.07B $0.91B 7.31%
2011-05-31 $0.07B $0.96B 7.41%
2011-02-28 $0.07B $0.97B 7.72%
2010-11-30 $0.05B $0.94B 5.50%
2010-08-31 $0.04B $0.86B 5.25%
2010-05-31 $0.04B $0.86B 5.04%
2010-02-28 $0.03B $0.83B 3.68%
2009-11-30 $0.03B $0.80B 4.44%
Sector Industry Market Cap Revenue
Computer and Technology Computer Software $2.174B $0.694B
Progress offers the leading platform for developing and deploying mission-critical business applications. Progress empowers enterprises and ISVs to build and deliver cognitive-first applications that harness big data to derive business insights and competitive advantage. Progress offers leading technologies for easily building powerful user interfaces across any type of device, a reliable, scalable and secure backend platform to deploy modern applications, leading data connectivity to all sources, and award-winning predictive analytics that brings the power of machine learning to any organization.
Stock Name Country Market Cap PE Ratio
Microsoft (MSFT) United States $3197.081B 37.24
Oracle (ORCL) United States $337.818B 27.50
Salesforce (CRM) United States $263.577B 44.06
Adobe (ADBE) United States $212.993B 35.61
Intuit (INTU) United States $169.957B 52.87
Synopsys (SNPS) United States $89.579B 62.03
Cadence Design Systems (CDNS) United States $80.084B 76.24
Dassault Systemes SA (DASTY) France $56.134B 36.47
Autodesk (ADSK) United States $46.304B 45.24
MicroStrategy (MSTR) United States $29.884B 0.00
ANSYS (ANSS) United States $28.906B 53.49
PTC (PTC) United States $21.905B 58.10
SS&C Technologies Holdings (SSNC) United States $15.290B 14.48
Manhattan Associates (MANH) United States $14.046B 74.55
Descartes Systems Group (DSGX) Canada $8.546B 74.80
Open Text (OTEX) Canada $8.205B 8.26
Trend Micro (TMICY) Japan $6.572B 47.60
Pegasystems (PEGA) United States $5.096B 45.06
CommVault Systems (CVLT) United States $4.800B 78.44
Blackbaud (BLKB) United States $4.095B 35.25
ACI Worldwide (ACIW) United States $3.735B 17.89
Verint Systems (VRNT) United States $1.911B 17.81
Sapiens (SPNS) Israel $1.880B 25.64
BlackBerry (BB) Canada $1.700B 0.00
PROS Holdings (PRO) United States $1.465B 0.00
Simulations Plus (SLP) United States $0.996B 73.28
Rand Worldwide (RWWI) United States $0.652B 0.00
Magic Software Enterprises (MGIC) Israel $0.522B 11.08
American Software (AMSWA) United States $0.355B 29.72
Canaan (CAN) China $0.245B 0.00
OptimizeRx (OPRX) United States $0.236B 0.00
Rigetti Computing (RGTI) United States $0.184B 0.00
Icad Inc (ICAD) United States $0.042B 0.00
Neonode (NEON) Sweden $0.037B 0.00
NetSol Technologies (NTWK) United States $0.030B 0.00
Smith Micro Software (SMSI) United States $0.024B 0.00
Hanryu Holdings (HRYU) South Korea $0.021B 0.00
Wetouch Technology (WETH) $0.020B 0.00
GSE Systems (GVP) United States $0.011B 0.00
SAP SE (SAP) Germany $0.000B 49.97